Sundridge, Canada
Current Conditions -  °F | °C
As of 5:32 AM on Saturday 25 Oct 2014 (Local Time) from CYYB Reporting Station
Haze Haze  
Wind Chill: 42°   Ceiling: 200
Heat Index: 46°   Visibility: 1.7mi
Dew Point: 45°   Wind: 9mph
Humidity: 93%   Direction: 200°SSW
Pressure: 29.7"   Gusts: NA
Location:  45.77°N, 79.4°W
Report Text: CYYB 250932Z AUTO 20008KT 1 3/4SM BR OVC002 08/07 A2970 RMK SLP065
Loading
Personal Weather Stations






























Interactive Weather Map
Tropical Storm Tracking
New forecast layout! Learn more

10-Day Weather Forecast

Advertisements
Track Severe Weather on mobile